Time;durP1;ratioP1;P1;durP2;ratioP2;P2;SDS_P1;SDS_P2;PMS_P1;PMS_P2;Temp;Humidity;BMP_temperature;BMP_pressure;BME280_temperature;BME280_humidity;BME280_pressure;Samples;Min_cycle;Max_cycle;Signal;HPM_P1;HPM_P2
2024/03/30 00:00:54;;;;;;;42.10;13.53;;;8.70;99.90;;;9.38;100.00;96160.16;10442629;28;20319;-67
2024/03/30 00:06:03;;;;;;;39.27;11.70;;;8.60;99.90;;;9.42;100.00;96154.38;10440478;28;20225;-64
2024/03/30 00:11:06;;;;;;;63.73;19.20;;;8.60;99.90;;;9.33;100.00;96163.38;10439126;28;20331;-65
2024/03/30 00:16:09;;;;;;;50.75;16.10;;;8.50;99.90;;;9.33;100.00;96161.72;10443128;28;20319;-66
2024/03/30 00:21:15;;;;;;;55.17;13.63;;;8.50;99.90;;;9.40;98.27;96157.69;10458601;28;20308;-67
2024/03/30 00:26:18;;;;;;;67.43;13.43;;;8.60;99.90;;;9.29;97.25;96156.44;10444130;28;20314;-64
2024/03/30 00:31:25;;;;;;;45.67;11.35;;;8.60;99.90;;;9.28;97.57;96150.47;10442321;28;20326;-71
2024/03/30 00:36:27;;;;;;;46.03;11.70;;;8.50;99.90;;;9.41;96.19;96164.50;10436365;28;21009;-66
2024/03/30 00:41:31;;;;;;;56.43;12.17;;;8.60;99.90;;;9.56;94.45;96156.53;10445067;28;20307;-65
2024/03/30 00:46:33;;;;;;;59.83;13.13;;;8.90;99.90;;;9.64;92.34;96166.16;10440697;28;21926;-65
2024/03/30 00:51:35;;;;;;;50.47;11.77;;;9.00;99.90;;;9.68;91.27;96165.44;10442193;28;20315;-65
2024/03/30 00:56:38;;;;;;;57.40;12.07;;;9.00;99.90;;;9.71;91.05;96151.91;10442409;28;20312;-65
2024/03/30 01:01:41;;;;;;;55.78;12.05;;;9.00;99.90;;;9.68;90.58;96152.69;10439723;28;20661;-65
2024/03/30 01:06:43;;;;;;;59.45;12.80;;;9.00;99.90;;;9.69;90.03;96148.44;10440642;28;20323;-66
2024/03/30 01:11:47;;;;;;;51.90;11.80;;;9.00;99.90;;;9.81;88.44;96143.72;10438435;28;20546;-68
2024/03/30 01:16:50;;;;;;;41.67;10.48;;;9.10;99.90;;;9.92;90.68;96142.38;10439298;28;20364;-66
2024/03/30 01:21:53;;;;;;;47.25;10.68;;;9.10;99.90;;;9.64;93.28;96139.75;10458294;28;20319;-66
2024/03/30 01:26:58;;;;;;;47.70;11.55;;;8.80;99.90;;;9.54;92.78;96138.59;10468749;28;20413;-65
2024/03/30 01:32:01;;;;;;;49.85;10.52;;;8.70;99.90;;;9.42;92.71;96143.31;10445988;28;20307;-70
2024/03/30 01:37:04;;;;;;;49.93;11.07;;;8.60;99.90;;;9.44;92.11;96137.44;10446721;28;20997;-67
2024/03/30 01:42:07;;;;;;;48.97;11.93;;;8.70;99.90;;;9.42;92.07;96135.66;10463375;28;20359;-68
2024/03/30 01:47:10;;;;;;;41.43;9.43;;;8.60;99.90;;;9.32;91.49;96142.09;10447631;28;20351;-67
2024/03/30 01:52:13;;;;;;;50.17;10.87;;;8.50;99.90;;;9.22;91.68;96140.06;10446799;28;20347;-68
2024/03/30 01:57:17;;;;;;;46.40;10.37;;;8.50;99.90;;;9.17;91.00;96144.16;10471578;28;20433;-65
2024/03/30 02:02:20;;;;;;;42.20;10.17;;;8.40;99.90;;;9.24;87.43;96134.22;10458478;28;20319;-64
2024/03/30 02:07:22;;;;;;;44.90;9.13;;;8.60;99.90;;;9.21;87.25;96133.22;10481285;28;20264;-65
2024/03/30 02:12:26;;;;;;;42.90;9.47;;;8.50;99.90;;;9.28;88.67;96145.38;10462751;28;20989;-66
2024/03/30 02:17:28;;;;;;;39.60;8.67;;;8.50;99.90;;;9.11;89.45;96141.38;10463298;28;20262;-67
2024/03/30 02:22:31;;;;;;;42.17;9.20;;;8.40;99.90;;;9.02;88.54;96132.59;10461797;28;20667;-68
2024/03/30 02:27:39;;;;;;;47.50;9.07;;;8.30;99.90;;;9.07;87.20;96130.22;10477619;28;20266;-66
2024/03/30 02:32:41;;;;;;;37.90;8.30;;;8.40;99.90;;;9.09;86.09;96130.25;10461797;28;20248;-65
2024/03/30 02:37:45;;;;;;;32.23;8.03;;;8.40;99.90;;;9.20;86.11;96116.22;10477081;28;20715;-69
2024/03/30 02:42:49;;;;;;;36.90;8.80;;;8.60;99.90;;;9.29;85.05;96121.63;10460939;28;20248;-66
2024/03/30 02:47:51;;;;;;;38.30;8.37;;;8.60;99.90;;;9.30;87.86;96138.66;10463748;28;20797;-66
2024/03/30 02:52:53;;;;;;;38.40;8.80;;;8.50;99.90;;;9.10;87.92;96130.34;10477706;28;20240;-64
2024/03/30 02:57:56;;;;;;;30.30;8.03;;;8.40;99.90;;;9.15;88.30;96123.69;10472641;28;20251;-65
2024/03/30 03:02:58;;;;;;;42.73;8.33;;;8.50;99.90;;;9.20;89.21;96111.13;10456468;28;20637;-66
2024/03/30 03:08:00;;;;;;;37.73;8.97;;;8.40;99.90;;;9.17;89.68;96111.00;10462446;28;20752;-66
2024/03/30 03:13:04;;;;;;;40.23;8.40;;;8.40;99.90;;;9.14;90.49;96100.72;10458985;28;20719;-67
2024/03/30 03:18:07;;;;;;;39.97;8.70;;;8.40;99.90;;;9.09;90.92;96104.78;10461430;28;20266;-64
2024/03/30 03:23:09;;;;;;;37.83;7.57;;;8.30;99.90;;;9.02;91.71;96094.38;10459509;28;20840;-64
2024/03/30 03:28:12;;;;;;;38.20;8.00;;;8.30;99.90;;;9.10;91.21;96099.75;10460013;28;20301;-65
2024/03/30 03:33:14;;;;;;;41.33;9.63;;;8.30;99.90;;;9.25;91.81;96096.84;10460486;28;20313;-65
2024/03/30 03:38:16;;;;;;;31.60;6.47;;;8.40;99.90;;;9.13;86.54;96092.22;10463136;28;20252;-66
2024/03/30 03:43:20;;;;;;;28.90;7.87;;;8.50;99.90;;;9.42;88.26;96088.06;10457960;28;20739;-67
2024/03/30 03:48:22;;;;;;;36.80;8.27;;;8.70;99.90;;;9.35;89.84;96087.81;10472652;28;21436;-66
2024/03/30 03:53:24;;;;;;;30.87;7.40;;;8.60;99.90;;;9.19;90.02;96079.66;10461133;28;20310;-65
2024/03/30 03:58:28;;;;;;;25.97;5.87;;;8.50;99.90;;;9.24;88.55;96072.16;10459277;28;20320;-65
2024/03/30 04:03:30;;;;;;;21.30;5.67;;;8.50;99.90;;;9.39;88.84;96075.22;10460779;28;20255;-66
2024/03/30 04:08:32;;;;;;;25.10;6.20;;;8.60;99.90;;;9.29;88.93;96060.44;10450285;28;20334;-66
2024/03/30 04:13:35;;;;;;;22.10;6.33;;;8.50;99.90;;;9.25;89.79;96059.47;10458614;28;20272;-67
2024/03/30 04:18:38;;;;;;;25.13;5.27;;;8.50;99.90;;;9.08;90.68;96052.09;10456384;28;20761;-65
2024/03/30 04:23:42;;;;;;;28.80;6.37;;;8.40;99.90;;;9.11;90.40;96059.84;10459622;28;20251;-64
2024/03/30 04:28:46;;;;;;;17.97;4.80;;;8.30;99.90;;;8.95;91.94;96077.13;10458922;28;20247;-65
2024/03/30 04:33:48;;;;;;;19.97;5.93;;;8.20;99.90;;;8.89;91.05;96089.66;10459116;28;20256;-66
2024/03/30 04:38:50;;;;;;;18.90;6.40;;;8.10;99.90;;;8.84;91.48;96087.78;10459316;28;20307;-65
2024/03/30 04:43:54;;;;;;;18.63;5.50;;;8.10;99.90;;;8.79;90.94;96085.09;10459093;28;20297;-65
2024/03/30 04:48:56;;;;;;;20.77;5.47;;;8.00;99.90;;;8.76;90.75;96087.53;10475191;28;20738;-67
2024/03/30 04:53:58;;;;;;;23.67;5.57;;;8.00;99.90;;;8.79;88.36;96082.53;10459401;28;20264;-65
2024/03/30 04:59:01;;;;;;;19.20;4.97;;;8.00;99.90;;;8.70;89.48;96093.28;10463878;28;20252;-65
2024/03/30 05:04:04;;;;;;;20.00;5.20;;;7.90;99.90;;;8.69;89.51;96100.84;10463211;28;20252;-68
2024/03/30 05:09:06;;;;;;;18.93;4.70;;;7.90;99.90;;;8.57;89.37;96107.22;10483531;28;20264;-65
2024/03/30 05:14:10;;;;;;;23.60;5.37;;;7.80;99.90;;;8.64;88.57;96092.16;10460259;28;20665;-66
2024/03/30 05:24:28;;;;;;;18.57;5.03;;;7.70;99.90;;;8.44;88.46;96099.97;10461898;28;20653;-65
2024/03/30 05:29:31;;;;;;;13.37;4.40;;;7.70;99.90;;;8.42;86.58;96100.72;10464965;28;20727;-64
2024/03/30 05:34:33;;;;;;;14.47;4.57;;;7.70;99.90;;;8.57;87.13;96097.03;10465169;28;20677;-65
2024/03/30 05:39:35;;;;;;;23.53;4.63;;;7.90;99.90;;;8.63;87.11;96105.72;10465033;28;20671;-65
2024/03/30 05:44:39;;;;;;;18.37;4.67;;;7.80;99.90;;;8.51;88.50;96099.38;10463824;28;20266;-65
2024/03/30 05:49:41;;;;;;;18.80;5.20;;;7.80;99.90;;;8.65;89.05;96099.00;10480142;28;20319;-65
2024/03/30 05:54:43;;;;;;;17.87;4.80;;;7.90;99.90;;;8.85;88.32;96098.03;10462482;28;20262;-65
2024/03/30 05:59:47;;;;;;;18.40;4.57;;;8.10;99.90;;;8.93;90.83;96093.22;10461677;28;20255;-66
2024/03/30 06:04:49;;;;;;;16.17;4.73;;;8.20;99.90;;;9.30;87.35;96090.22;10454877;28;20320;-69
2024/03/30 06:09:51;;;;;;;18.50;4.93;;;8.50;99.90;;;9.68;86.98;96090.59;10457478;28;20315;-68
2024/03/30 06:14:54;;;;;;;12.23;4.47;;;9.00;99.90;;;10.16;86.61;96090.38;10449550;28;20344;-66
2024/03/30 06:19:59;;;;;;;18.70;5.97;;;9.40;99.90;;;10.64;82.83;96091.75;10457149;28;20333;-65
2024/03/30 06:25:02;;;;;;;18.23;4.80;;;9.80;99.90;;;10.62;82.98;96084.06;10453473;28;20303;-65
2024/03/30 06:30:08;;;;;;;13.27;4.75;;;9.80;99.90;;;11.17;82.39;96090.66;10470850;28;20445;-65
2024/03/30 06:35:10;;;;;;;15.70;4.63;;;10.30;99.90;;;11.82;81.94;96087.13;10453645;28;20315;-66
2024/03/30 06:45:33;;;;;;;15.82;4.20;;;11.30;99.90;;;12.99;78.45;96091.34;10445634;28;20826;-67
2024/03/30 06:50:35;;;;;;;18.95;5.55;;;11.90;99.90;;;13.34;76.75;96090.31;10454406;28;20708;-64
2024/03/30 06:55:37;;;;;;;18.08;4.75;;;12.30;99.90;;;13.85;73.61;96080.03;10431698;28;20722;-65
2024/03/30 07:00:41;;;;;;;19.58;5.78;;;12.80;99.90;;;14.35;72.03;96085.00;10434791;28;20673;-68
2024/03/30 07:05:43;;;;;;;17.42;6.18;;;13.10;99.90;;;14.57;71.68;96088.78;10468261;28;20319;-68
2024/03/30 07:10:46;;;;;;;18.23;5.30;;;13.40;99.90;;;14.78;71.37;96083.03;10453458;28;20347;-62
2024/03/30 07:15:50;;;;;;;19.17;5.35;;;13.60;99.90;;;14.97;69.02;96070.38;10440021;28;20686;-67
2024/03/30 07:20:53;;;;;;;15.57;4.55;;;14.00;99.90;;;15.23;71.61;96068.94;10430291;28;20223;-64
2024/03/30 07:25:55;;;;;;;21.80;6.43;;;14.30;99.90;;;15.60;65.99;96069.28;10453339;28;20323;-64
2024/03/30 07:31:06;;;;;;;20.45;5.95;;;14.70;99.90;;;15.84;65.36;96066.06;10455400;28;20254;-65
2024/03/30 07:36:09;;;;;;;17.88;5.40;;;15.00;99.90;;;16.21;66.25;96067.16;10454193;28;20312;-66
2024/03/30 07:41:11;;;;;;;19.60;5.63;;;15.30;99.90;;;16.51;62.12;96065.63;10455440;28;22035;-67
2024/03/30 07:46:15;;;;;;;20.20;5.90;;;15.70;99.90;;;16.63;60.78;96060.50;10443039;28;20725;-66
2024/03/30 07:51:17;;;;;;;17.75;4.78;;;15.80;99.90;;;16.76;58.08;96045.06;10458240;28;20311;-69
2024/03/30 07:56:25;;;;;;;20.65;5.72;;;15.90;99.90;;;16.87;57.10;96052.00;10452480;28;20514;-66
2024/03/30 08:01:29;;;;;;;22.42;6.50;;;16.10;99.90;;;16.74;63.72;96062.25;10451738;28;20268;-66
2024/03/30 08:06:31;;;;;;;19.95;5.40;;;15.90;99.90;;;16.65;61.58;96058.81;10438842;28;20336;-70
2024/03/30 08:11:33;;;;;;;20.83;6.03;;;15.80;99.90;;;16.56;59.08;96050.13;10455731;28;20642;-68
2024/03/30 08:16:37;;;;;;;24.27;5.28;;;15.70;99.90;;;16.34;64.01;96038.84;10469410;28;20256;-68
2024/03/30 08:21:39;;;;;;;28.52;5.90;;;15.40;99.90;;;16.41;59.52;96043.19;10466106;28;20664;-66
2024/03/30 08:26:41;;;;;;;22.15;5.30;;;15.50;99.90;;;16.36;54.04;96030.28;10441566;28;20326;-65
2024/03/30 08:31:44;;;;;;;26.80;5.70;;;15.60;99.90;;;16.59;48.83;96025.22;10438484;28;20672;-68
2024/03/30 08:36:47;;;;;;;24.70;5.55;;;15.80;95.30;;;16.72;50.52;96017.53;10437377;28;20719;-65
2024/03/30 08:41:49;;;;;;;22.35;5.15;;;15.90;98.00;;;16.45;51.74;96008.81;10437505;28;20660;-68
2024/03/30 08:46:53;;;;;;;22.63;5.10;;;15.70;97.30;;;16.42;55.71;96013.97;10454881;28;20226;-65
2024/03/30 08:51:56;;;;;;;24.92;5.85;;;15.70;99.90;;;16.32;52.94;96007.06;10451528;28;20347;-69
2024/03/30 08:56:58;;;;;;;30.20;6.43;;;15.50;99.90;;;16.22;55.32;96011.28;10457118;28;20274;-66
2024/03/30 09:02:01;;;;;;;26.13;6.07;;;15.40;99.90;;;16.03;58.87;96014.66;10454548;28;20270;-69
2024/03/30 09:07:04;;;;;;;24.52;5.90;;;15.10;99.90;;;15.86;63.93;96022.28;10438429;28;20310;-68
2024/03/30 09:12:07;;;;;;;21.90;5.38;;;14.90;99.90;;;15.69;68.29;96030.75;10436781;28;20311;-68
2024/03/30 09:17:10;;;;;;;20.83;5.75;;;14.70;99.90;;;15.62;69.28;96041.78;10442411;28;20435;-67
2024/03/30 09:22:12;;;;;;;20.23;5.53;;;14.60;99.90;;;15.46;70.81;96038.25;10436353;28;20224;-67
2024/03/30 09:27:14;;;;;;;21.20;5.65;;;14.50;99.90;;;15.45;71.84;96041.69;10438514;28;20330;-66
2024/03/30 09:32:18;;;;;;;19.17;5.50;;;14.50;99.90;;;15.41;73.08;96046.78;10462724;28;20645;-67
2024/03/30 09:37:20;;;;;;;21.50;5.38;;;14.50;99.90;;;15.37;74.05;96050.19;10455182;28;20626;-66
2024/03/30 09:42:31;;;;;;;23.63;6.07;;;14.40;99.90;;;15.36;75.31;96069.03;10458177;28;20248;-66
2024/03/30 09:47:38;;;;;;;25.20;5.63;;;14.40;99.90;;;15.38;75.49;96050.19;10408226;23;20677;-67
2024/03/30 09:52:40;;;;;;;30.58;8.23;;;14.50;99.90;;;15.47;72.90;96044.25;10392038;28;20305;-67
2024/03/30 09:57:45;;;;;;;21.38;6.05;;;14.50;99.90;;;15.63;70.75;96043.53;10397902;28;20261;-68
2024/03/30 10:02:48;;;;;;;19.95;5.55;;;14.70;99.90;;;15.69;72.27;96046.19;10389927;28;20264;-68
2024/03/30 10:08:00;;;;;;;21.85;5.32;;;14.80;99.90;;;15.73;73.37;96036.75;10393772;28;20250;-68
2024/03/30 10:13:07;;;;;;;25.52;5.65;;;14.80;99.90;;;15.74;77.72;96039.38;10409782;28;20260;-68
2024/03/30 10:18:11;;;;;;;24.45;6.30;;;14.80;99.90;;;15.85;73.25;96030.84;10390794;28;20311;-67
2024/03/30 10:23:14;;;;;;;20.52;5.43;;;14.90;99.90;;;16.03;74.17;96022.38;10393829;28;20257;-67
2024/03/30 10:28:16;;;;;;;25.23;6.32;;;15.10;99.90;;;16.17;74.69;96024.19;10392350;28;20291;-68
2024/03/30 10:33:21;;;;;;;24.48;6.22;;;15.30;99.90;;;16.33;74.93;96026.81;10390235;28;20257;-67
2024/03/30 10:38:23;;;;;;;26.33;6.93;;;15.40;99.90;;;16.51;70.76;96019.19;10384992;28;20253;-66
2024/03/30 10:43:25;;;;;;;19.25;6.38;;;15.60;99.90;;;16.69;68.54;96010.66;10387292;28;20273;-67
2024/03/30 10:48:29;;;;;;;21.85;5.65;;;15.80;99.90;;;16.88;66.48;96009.00;10389082;28;20680;-67
2024/03/30 10:53:32;;;;;;;25.48;6.45;;;16.00;99.90;;;17.21;67.37;96005.63;10382658;28;20253;-68
2024/03/30 10:58:34;;;;;;;31.17;7.65;;;16.30;99.90;;;17.63;64.94;96013.41;10386566;28;20731;-68
2024/03/30 11:03:39;;;;;;;22.48;6.40;;;16.80;99.90;;;18.18;63.61;96008.16;10407460;28;20342;-68
2024/03/30 11:08:42;;;;;;;25.75;6.93;;;17.30;99.90;;;18.60;64.65;96004.56;10390863;28;20276;-67
2024/03/30 11:13:45;;;;;;;21.98;6.82;;;17.80;99.90;;;18.92;63.07;96001.00;10407326;28;20709;-67
2024/03/30 11:19:01;;;;;;;18.73;6.05;;;18.10;99.90;;;19.17;60.54;95999.09;10386048;28;20245;-66
2024/03/30 11:24:06;;;;;;;29.00;7.03;;;18.30;99.90;;;19.34;52.38;95993.78;10402786;28;20254;-66
2024/03/30 11:29:15;;;;;;;33.72;7.93;;;18.60;99.90;;;19.50;46.98;95999.72;10388008;28;20257;-67
2024/03/30 11:34:30;;;;;;;35.25;7.78;;;18.80;95.50;;;19.74;43.56;95994.38;10405639;28;20281;-66
2024/03/30 11:39:43;;;;;;;23.65;6.13;;;19.00;90.50;;;19.85;41.68;95986.47;10394904;28;20279;-67
2024/03/30 11:44:49;;;;;;;25.80;6.18;;;19.20;86.80;;;20.13;40.12;95974.09;10391669;28;20356;-67
2024/03/30 11:49:52;;;;;;;24.58;6.75;;;19.40;83.00;;;20.44;38.24;95972.00;10400743;28;20268;-67
2024/03/30 11:54:55;;;;;;;23.23;6.38;;;19.70;79.50;;;20.69;36.26;95966.53;10406104;28;20253;-67
2024/03/30 11:59:58;;;;;;;23.40;6.47;;;19.80;76.00;;;20.54;38.33;95972.75;10402068;28;20314;-67
2024/03/30 12:05:04;;;;;;;34.88;6.70;;;19.70;78.80;;;20.76;36.03;95977.69;10378803;28;20312;-67
2024/03/30 12:10:11;;;;;;;23.40;6.13;;;19.90;74.60;;;20.79;36.10;95972.47;10395066;28;20276;-67
2024/03/30 12:15:15;;;;;;;29.08;6.97;;;19.90;75.00;;;20.96;35.60;95967.88;10386086;28;20301;-67
2024/03/30 12:20:20;;;;;;;25.08;6.65;;;20.10;73.40;;;21.12;33.43;95977.19;10400423;28;20319;-67
2024/03/30 12:25:25;;;;;;;27.23;5.97;;;20.30;69.10;;;21.05;33.78;95975.53;10376223;28;20322;-66
2024/03/30 12:30:27;;;;;;;27.50;6.97;;;20.20;69.20;;;20.92;34.96;95966.22;10408566;28;20268;-67
2024/03/30 12:35:31;;;;;;;26.70;6.13;;;20.00;71.10;;;21.09;34.67;95972.03;10401195;28;20261;-67
2024/03/30 12:40:35;;;;;;;31.20;7.03;;;20.10;71.90;;;20.92;34.37;95968.81;10384233;28;20295;-68
2024/03/30 12:45:37;;;;;;;29.83;6.93;;;20.10;70.00;;;20.95;33.94;95968.78;10381148;28;20281;-64
2024/03/30 12:50:41;;;;;;;35.67;7.45;;;20.10;69.10;;;20.72;34.27;95965.63;10387287;28;20264;-68
2024/03/30 12:55:43;;;;;;;32.75;6.80;;;19.90;70.30;;;20.88;33.94;95961.94;10390107;28;20270;-67
2024/03/30 13:00:45;;;;;;;34.60;6.82;;;19.90;69.80;;;20.58;34.76;95961.47;10388207;28;20246;-67
2024/03/30 13:05:49;;;;;;;23.40;5.78;;;19.80;70.40;;;20.52;36.15;95952.84;10389652;28;20280;-67
2024/03/30 13:10:52;;;;;;;28.65;7.03;;;19.60;71.60;;;20.32;40.34;95945.34;10404288;28;20256;-67
2024/03/30 13:15:54;;;;;;;37.05;6.88;;;19.40;82.80;;;20.32;38.85;95934.97;10391935;28;20261;-66
2024/03/30 13:20:59;;;;;;;27.27;6.80;;;19.30;81.80;;;19.95;42.98;95930.22;10393360;28;20733;-67
2024/03/30 13:26:01;;;;;;;29.33;6.45;;;18.90;90.00;;;19.65;45.48;95915.78;10396170;28;20307;-67
2024/03/30 13:31:04;;;;;;;32.22;6.55;;;18.60;93.20;;;19.39;47.71;95913.44;10395016;28;20265;-67
2024/03/30 13:36:07;;;;;;;30.58;6.95;;;18.30;94.80;;;19.18;50.58;95914.50;10385574;28;20341;-67
2024/03/30 13:41:10;;;;;;;23.95;6.68;;;18.10;98.20;;;19.17;51.41;95921.38;10393125;28;20257;-67
2024/03/30 13:46:12;;;;;;;28.60;7.60;;;18.00;98.50;;;19.56;50.46;95921.91;10395443;28;20283;-67
2024/03/30 13:51:15;;;;;;;31.60;7.13;;;18.30;98.10;;;19.27;51.92;95940.31;10395139;28;20257;-68
2024/03/30 13:56:17;;;;;;;34.28;7.03;;;18.20;99.80;;;19.32;49.13;95975.69;10389594;28;20291;-67
2024/03/30 14:01:20;;;;;;;26.17;6.93;;;18.00;97.10;;;18.69;47.81;95982.97;10388882;28;20650;-67
2024/03/30 14:06:23;;;;;;;24.80;6.20;;;17.50;95.10;;;18.39;46.35;96015.84;10390336;28;20321;-66
2024/03/30 14:11:25;;;;;;;30.23;6.53;;;17.20;93.60;;;18.11;44.58;96011.63;10411837;28;20260;-67
2024/03/30 14:16:28;;;;;;;23.98;6.35;;;17.20;90.80;;;17.87;46.46;96020.28;10392762;28;20263;-68
2024/03/30 14:21:31;;;;;;;22.40;5.82;;;16.80;92.20;;;17.80;46.20;96024.63;10392963;28;20246;-67
2024/03/30 14:26:33;;;;;;;22.25;5.70;;;16.70;92.60;;;17.74;45.79;96040.06;10408966;28;20265;-67
2024/03/30 14:31:35;;;;;;;20.83;5.55;;;16.70;91.80;;;17.69;46.16;96036.66;10388436;28;20261;-66
2024/03/30 14:36:39;;;;;;;23.27;5.18;;;16.60;92.50;;;17.55;47.64;96034.91;10393422;28;20674;-67
2024/03/30 14:41:41;;;;;;;20.83;5.57;;;16.50;93.60;;;17.41;47.02;96036.63;10404513;28;20253;-67
2024/03/30 14:46:44;;;;;;;20.35;4.85;;;16.40;93.10;;;17.32;47.46;96036.63;10385839;28;20260;-67
2024/03/30 14:51:47;;;;;;;23.20;5.20;;;16.30;93.90;;;17.24;48.22;96022.84;10392586;28;20308;-67
2024/03/30 14:56:51;;;;;;;20.75;5.80;;;16.20;94.40;;;17.26;47.58;96037.47;10376632;28;20313;-66
2024/03/30 15:01:53;;;;;;;18.58;5.55;;;16.20;94.10;;;17.08;50.31;96043.47;10373902;28;20256;-68
2024/03/30 15:06:56;;;;;;;22.75;5.88;;;16.10;96.40;;;17.19;49.51;96050.38;10383220;28;20236;-66
2024/03/30 15:11:59;;;;;;;21.25;6.40;;;16.10;96.00;;;16.99;51.57;96061.50;10387208;28;20611;-65
2024/03/30 15:17:01;;;;;;;21.80;7.10;;;16.00;97.70;;;16.94;51.89;96057.19;10358967;28;20236;-65
2024/03/30 15:22:05;;;;;;;20.35;6.60;;;16.00;97.70;;;16.93;51.51;96055.47;10351357;28;20615;-66
2024/03/30 15:27:07;;;;;;;23.27;5.63;;;15.90;97.90;;;17.00;51.43;96049.50;10350273;28;20790;-64
2024/03/30 15:32:23;;;;;;;19.25;5.18;;;16.00;97.40;;;16.89;52.25;96064.94;10332342;28;20501;-66
2024/03/30 15:37:27;;;;;;;19.55;4.57;;;15.90;98.00;;;16.98;51.52;96077.88;10359667;28;20306;-65
2024/03/30 15:42:30;;;;;;;11.00;4.05;;;15.80;98.20;;;16.88;51.69;96089.88;10365445;28;20226;-66
2024/03/30 15:47:32;;;;;;;22.15;5.18;;;15.80;97.60;;;16.79;51.84;96102.72;10369084;28;20730;-68
2024/03/30 15:52:36;;;;;;;20.35;5.50;;;15.70;98.30;;;16.56;53.45;96094.00;10363457;28;20624;-68
2024/03/30 15:57:38;;;;;;;18.70;4.70;;;15.50;99.40;;;16.51;54.38;96112.03;10368413;28;20715;-65
2024/03/30 16:02:40;;;;;;;17.30;5.05;;;15.50;99.90;;;16.42;53.98;96119.69;10364152;28;20221;-67
2024/03/30 16:07:43;;;;;;;15.65;5.15;;;15.40;99.90;;;16.24;55.48;96123.03;10375146;28;21139;-71
2024/03/30 16:12:46;;;;;;;13.60;4.22;;;15.20;99.90;;;16.12;56.40;96125.53;10336434;28;20299;-65
2024/03/30 16:17:49;;;;;;;16.98;5.22;;;15.10;99.90;;;15.94;57.66;96149.47;10349035;28;20229;-64
2024/03/30 16:22:55;;;;;;;19.20;4.88;;;15.00;99.90;;;15.91;58.29;96158.03;10360697;28;20229;-68
2024/03/30 16:27:58;;;;;;;16.17;5.88;;;14.90;99.90;;;15.85;58.06;96159.66;10360844;28;20230;-67
2024/03/30 16:33:00;;;;;;;17.15;5.05;;;14.90;99.90;;;15.80;57.97;96171.66;10368166;28;20344;-66
2024/03/30 16:38:04;;;;;;;17.55;4.88;;;14.90;99.90;;;15.79;58.23;96177.63;10372753;28;20316;-67
2024/03/30 16:43:06;;;;;;;23.92;13.48;;;14.80;99.90;;;15.83;58.63;96182.00;10375463;28;20321;-64
2024/03/30 16:48:08;;;;;;;17.58;5.93;;;14.90;99.90;;;15.88;59.20;96191.50;10374583;28;20320;-65
2024/03/30 16:53:11;;;;;;;20.42;6.45;;;14.90;99.90;;;15.86;58.59;96202.63;10373779;28;20372;-69
2024/03/30 16:58:14;;;;;;;24.60;5.75;;;14.90;99.90;;;15.66;58.80;96218.72;10373873;28;20230;-65
2024/03/30 17:03:16;;;;;;;14.73;5.25;;;14.70;99.90;;;15.52;59.37;96222.84;10374941;28;20651;-70
2024/03/30 17:08:20;;;;;;;21.48;6.35;;;14.60;99.90;;;15.32;59.38;96231.19;10374124;28;22813;-66
2024/03/30 17:13:22;;;;;;;21.52;6.55;;;14.40;99.90;;;15.12;60.42;96226.66;10388624;28;20316;-64
2024/03/30 17:18:25;;;;;;;22.75;6.10;;;14.20;99.90;;;14.96;61.24;96241.88;10379418;28;20261;-65
2024/03/30 17:23:28;;;;;;;16.52;5.45;;;14.00;99.90;;;14.79;61.91;96235.63;10372804;28;20336;-67
2024/03/30 17:28:30;;;;;;;18.13;5.60;;;13.80;99.90;;;14.57;62.00;96237.03;10392547;28;20305;-65
2024/03/30 17:33:33;;;;;;;16.90;6.07;;;13.60;99.90;;;14.40;62.72;96255.59;10393013;28;20777;-70
2024/03/30 17:38:38;;;;;;;16.83;5.85;;;13.50;99.90;;;14.25;64.99;96257.94;10368736;28;20313;-70
2024/03/30 17:43:40;;;;;;;22.05;5.60;;;13.30;99.90;;;14.09;65.39;96271.34;10372343;28;20321;-67
2024/03/30 17:48:42;;;;;;;24.67;7.40;;;13.10;99.90;;;13.95;65.78;96278.81;10361475;28;20218;-67
2024/03/30 17:53:50;;;;;;;20.08;6.43;;;13.00;99.90;;;13.81;66.73;96293.94;10379309;28;20310;-67
2024/03/30 17:58:53;;;;;;;22.88;7.40;;;12.80;99.90;;;13.69;67.48;96296.28;10364996;28;20812;-67
2024/03/30 18:03:55;;;;;;;23.92;6.72;;;12.70;99.90;;;13.54;68.96;96299.44;10361561;28;20869;-68
2024/03/30 18:08:59;;;;;;;17.40;6.70;;;12.60;99.90;;;13.42;68.52;96304.28;10361050;28;20709;-67
2024/03/30 18:14:01;;;;;;;19.45;7.72;;;12.50;99.90;;;13.33;68.33;96299.84;10362389;28;20274;-66
2024/03/30 18:19:03;;;;;;;18.98;7.03;;;12.40;99.90;;;13.22;70.40;96314.09;10377551;28;20312;-67
2024/03/30 18:24:07;;;;;;;20.10;6.97;;;12.30;99.90;;;13.08;70.53;96306.13;10378123;28;20676;-66
2024/03/30 18:29:10;;;;;;;19.83;7.00;;;12.20;99.90;;;13.01;70.15;96310.22;10379686;28;20283;-67
2024/03/30 18:34:14;;;;;;;22.60;8.48;;;12.10;99.90;;;12.86;72.42;96320.16;10375687;28;20356;-66
2024/03/30 18:39:17;;;;;;;26.65;8.40;;;11.90;99.90;;;12.78;72.16;96314.84;10375283;28;20226;-68
2024/03/30 18:44:19;;;;;;;25.90;9.50;;;11.90;99.90;;;12.70;72.88;96346.25;10368706;28;20324;-68
2024/03/30 18:49:21;;;;;;;25.80;11.02;;;11.80;99.90;;;12.52;75.30;96364.63;10372937;28;20230;-66
2024/03/30 18:54:25;;;;;;;24.45;12.00;;;11.60;99.90;;;12.38;76.06;96361.69;10373393;28;20735;-68
2024/03/30 18:59:27;;;;;;;19.63;14.32;;;11.40;99.90;;;12.28;76.97;96362.31;10394493;28;20217;-66
2024/03/30 19:04:30;;;;;;;28.83;9.70;;;11.40;99.90;;;12.17;77.56;96354.34;10379770;28;20780;-66
2024/03/30 19:09:33;;;;;;;21.33;8.10;;;11.20;99.90;;;11.97;77.73;96348.69;10400428;28;20398;-65
2024/03/30 19:14:35;;;;;;;20.92;5.82;;;11.00;99.90;;;11.89;77.42;96342.47;10383488;28;20705;-69
2024/03/30 19:19:38;;;;;;;18.30;7.07;;;11.00;99.90;;;11.77;79.16;96335.31;10386900;28;20258;-65
2024/03/30 19:24:42;;;;;;;19.38;6.60;;;10.90;99.90;;;11.69;80.34;96337.63;10388973;28;20372;-66
2024/03/30 19:29:44;;;;;;;22.45;7.00;;;10.80;99.90;;;11.52;81.43;96333.75;10397685;28;20357;-66
2024/03/30 19:34:46;;;;;;;25.23;7.15;;;10.60;99.90;;;11.38;82.20;96314.56;10376905;28;20545;-66
2024/03/30 19:39:50;;;;;;;18.92;5.80;;;10.40;99.90;;;11.27;82.49;96327.94;10382611;28;20312;-66
2024/03/30 19:44:52;;;;;;;26.65;12.30;;;10.30;99.90;;;11.14;83.27;96342.84;10377848;28;20669;-66
2024/03/30 19:49:55;;;;;;;23.65;10.63;;;10.20;99.90;;;11.01;83.35;96331.38;10381960;28;20313;-66
2024/03/30 19:54:59;;;;;;;18.90;7.32;;;10.20;99.90;;;10.92;85.07;96349.00;10389671;28;20364;-66
2024/03/30 20:00:03;;;;;;;17.45;6.32;;;10.00;99.90;;;10.81;84.42;96356.31;10383163;28;20308;-67
2024/03/30 20:05:05;;;;;;;22.23;8.95;;;9.90;99.90;;;10.78;84.98;96336.66;10364453;28;20408;-66
2024/03/30 20:10:09;;;;;;;28.70;9.27;;;9.90;99.90;;;10.69;86.81;96344.03;10366866;28;20583;-65
2024/03/30 20:15:12;;;;;;;21.17;9.88;;;9.80;99.90;;;10.56;88.48;96342.78;10361970;28;20230;-66
2024/03/30 20:20:14;;;;;;;25.83;10.82;;;9.70;99.90;;;10.53;88.83;96341.78;10379035;28;20232;-67
2024/03/30 20:25:18;;;;;;;23.52;8.48;;;9.60;99.90;;;10.34;88.70;96315.66;10378028;28;20731;-66
2024/03/30 20:30:20;;;;;;;17.23;6.18;;;9.50;99.90;;;10.34;88.98;96307.13;10387196;28;20248;-66
2024/03/30 20:35:22;;;;;;;19.55;6.38;;;9.50;99.90;;;10.35;89.31;96319.94;10361712;28;20762;-65
2024/03/30 20:40:26;;;;;;;20.70;6.60;;;9.50;99.90;;;10.31;90.00;96319.81;10383511;28;20226;-66
2024/03/30 20:45:28;;;;;;;16.42;6.55;;;9.50;99.90;;;10.30;89.75;96318.94;10363515;28;20225;-68
2024/03/30 20:50:30;;;;;;;22.20;7.47;;;9.50;99.90;;;10.28;89.41;96312.91;10360576;28;20225;-67
2024/03/30 20:55:34;;;;;;;22.15;6.97;;;9.50;99.90;;;10.29;90.36;96306.97;10384503;28;20225;-66
2024/03/30 21:00:36;;;;;;;21.98;7.75;;;9.50;99.90;;;10.19;90.57;96307.47;10389747;28;20255;-66
2024/03/30 21:05:38;;;;;;;24.88;7.25;;;9.40;99.90;;;10.10;91.38;96289.28;10379585;28;20320;-65